sensor_id;sensor_type;location;lat;lon;timestamp;P1;durP1;ratioP1;P2;durP2;ratioP2
14100;SDS011;7127;49.372;8.166;2022-10-31T00:01:50;2.20;;;1.70;;
14100;SDS011;7127;49.372;8.166;2022-10-31T00:04:17;3.73;;;1.60;;
14100;SDS011;7127;49.372;8.166;2022-10-31T00:06:44;4.87;;;1.60;;
14100;SDS011;7127;49.372;8.166;2022-10-31T00:09:11;3.70;;;1.20;;
14100;SDS011;7127;49.372;8.166;2022-10-31T00:11:38;2.50;;;1.50;;
14100;SDS011;7127;49.372;8.166;2022-10-31T00:14:07;3.10;;;1.57;;
14100;SDS011;7127;49.372;8.166;2022-10-31T00:16:33;2.47;;;1.60;;
14100;SDS011;7127;49.372;8.166;2022-10-31T00:19:01;2.73;;;1.50;;
14100;SDS011;7127;49.372;8.166;2022-10-31T00:21:29;2.13;;;1.67;;
14100;SDS011;7127;49.372;8.166;2022-10-31T00:23:57;2.27;;;1.50;;
14100;SDS011;7127;49.372;8.166;2022-10-31T00:26:25;2.73;;;1.80;;
14100;SDS011;7127;49.372;8.166;2022-10-31T00:28:53;2.00;;;1.60;;
14100;SDS011;7127;49.372;8.166;2022-10-31T00:31:21;2.40;;;1.70;;
14100;SDS011;7127;49.372;8.166;2022-10-31T00:33:48;2.30;;;1.50;;
14100;SDS011;7127;49.372;8.166;2022-10-31T00:36:16;2.13;;;1.60;;
14100;SDS011;7127;49.372;8.166;2022-10-31T00:38:45;2.73;;;1.60;;
14100;SDS011;7127;49.372;8.166;2022-10-31T00:41:14;2.17;;;1.60;;
14100;SDS011;7127;49.372;8.166;2022-10-31T00:43:42;2.63;;;1.70;;
14100;SDS011;7127;49.372;8.166;2022-10-31T00:46:09;3.00;;;1.73;;
14100;SDS011;7127;49.372;8.166;2022-10-31T00:48:38;2.47;;;1.60;;
14100;SDS011;7127;49.372;8.166;2022-10-31T00:51:05;2.17;;;1.40;;
14100;SDS011;7127;49.372;8.166;2022-10-31T00:53:32;2.60;;;1.40;;
14100;SDS011;7127;49.372;8.166;2022-10-31T00:55:59;1.40;;;1.30;;
14100;SDS011;7127;49.372;8.166;2022-10-31T00:58:27;2.77;;;1.50;;
14100;SDS011;7127;49.372;8.166;2022-10-31T01:00:54;3.63;;;1.40;;
14100;SDS011;7127;49.372;8.166;2022-10-31T01:03:21;1.97;;;1.47;;
14100;SDS011;7127;49.372;8.166;2022-10-31T01:05:56;2.53;;;1.40;;
14100;SDS011;7127;49.372;8.166;2022-10-31T01:08:25;1.87;;;1.53;;
14100;SDS011;7127;49.372;8.166;2022-10-31T01:10:59;1.57;;;1.30;;
14100;SDS011;7127;49.372;8.166;2022-10-31T01:13:28;3.73;;;1.40;;
14100;SDS011;7127;49.372;8.166;2022-10-31T01:15:55;2.83;;;1.40;;
14100;SDS011;7127;49.372;8.166;2022-10-31T01:18:22;2.60;;;1.40;;
14100;SDS011;7127;49.372;8.166;2022-10-31T01:20:58;3.10;;;1.47;;
14100;SDS011;7127;49.372;8.166;2022-10-31T01:23:26;2.33;;;1.60;;
14100;SDS011;7127;49.372;8.166;2022-10-31T01:26:04;1.50;;;1.40;;
14100;SDS011;7127;49.372;8.166;2022-10-31T01:28:35;2.13;;;1.80;;
14100;SDS011;7127;49.372;8.166;2022-10-31T01:31:03;3.33;;;1.87;;
14100;SDS011;7127;49.372;8.166;2022-10-31T01:33:32;2.80;;;1.70;;
14100;SDS011;7127;49.372;8.166;2022-10-31T01:36:00;1.93;;;1.40;;
14100;SDS011;7127;49.372;8.166;2022-10-31T01:38:28;2.03;;;1.70;;
14100;SDS011;7127;49.372;8.166;2022-10-31T01:40:55;2.47;;;2.00;;
14100;SDS011;7127;49.372;8.166;2022-10-31T01:43:22;3.10;;;2.00;;
14100;SDS011;7127;49.372;8.166;2022-10-31T01:45:50;2.80;;;2.03;;
14100;SDS011;7127;49.372;8.166;2022-10-31T01:48:21;2.73;;;1.83;;
14100;SDS011;7127;49.372;8.166;2022-10-31T01:50:52;3.77;;;2.10;;
14100;SDS011;7127;49.372;8.166;2022-10-31T01:53:22;3.90;;;2.53;;
14100;SDS011;7127;49.372;8.166;2022-10-31T01:55:50;4.00;;;2.40;;
14100;SDS011;7127;49.372;8.166;2022-10-31T01:58:18;4.37;;;2.30;;
14100;SDS011;7127;49.372;8.166;2022-10-31T02:00:49;3.57;;;2.20;;
14100;SDS011;7127;49.372;8.166;2022-10-31T02:03:20;4.27;;;2.50;;
14100;SDS011;7127;49.372;8.166;2022-10-31T02:05:48;2.90;;;2.27;;
14100;SDS011;7127;49.372;8.166;2022-10-31T02:08:16;4.43;;;2.23;;
14100;SDS011;7127;49.372;8.166;2022-10-31T02:10:49;2.60;;;2.00;;
14100;SDS011;7127;49.372;8.166;2022-10-31T02:13:16;3.47;;;2.33;;
14100;SDS011;7127;49.372;8.166;2022-10-31T02:15:44;3.60;;;2.27;;
14100;SDS011;7127;49.372;8.166;2022-10-31T02:18:14;3.60;;;2.20;;
14100;SDS011;7127;49.372;8.166;2022-10-31T02:20:45;4.43;;;2.80;;
14100;SDS011;7127;49.372;8.166;2022-10-31T02:23:44;2.93;;;2.07;;
14100;SDS011;7127;49.372;8.166;2022-10-31T02:29:48;3.17;;;2.43;;
14100;SDS011;7127;49.372;8.166;2022-10-31T02:32:34;4.00;;;2.03;;
14100;SDS011;7127;49.372;8.166;2022-10-31T02:35:31;3.43;;;2.47;;
14100;SDS011;7127;49.372;8.166;2022-10-31T02:38:09;5.40;;;2.30;;
14100;SDS011;7127;49.372;8.166;2022-10-31T02:40:47;4.50;;;2.40;;
14100;SDS011;7127;49.372;8.166;2022-10-31T02:43:19;4.50;;;2.47;;
14100;SDS011;7127;49.372;8.166;2022-10-31T02:45:55;3.63;;;2.20;;
14100;SDS011;7127;49.372;8.166;2022-10-31T02:48:27;3.33;;;2.33;;
14100;SDS011;7127;49.372;8.166;2022-10-31T02:50:55;3.33;;;2.00;;
14100;SDS011;7127;49.372;8.166;2022-10-31T02:53:24;2.77;;;2.40;;
14100;SDS011;7127;49.372;8.166;2022-10-31T02:55:55;3.40;;;2.20;;
14100;SDS011;7127;49.372;8.166;2022-10-31T02:58:26;3.97;;;2.50;;
14100;SDS011;7127;49.372;8.166;2022-10-31T03:01:09;4.17;;;2.50;;
14100;SDS011;7127;49.372;8.166;2022-10-31T03:04:10;4.97;;;2.70;;
14100;SDS011;7127;49.372;8.166;2022-10-31T03:06:49;4.07;;;2.40;;
14100;SDS011;7127;49.372;8.166;2022-10-31T03:09:22;4.80;;;2.30;;
14100;SDS011;7127;49.372;8.166;2022-10-31T03:11:53;6.63;;;2.57;;
14100;SDS011;7127;49.372;8.166;2022-10-31T03:14:26;3.20;;;2.60;;
14100;SDS011;7127;49.372;8.166;2022-10-31T03:17:04;3.23;;;2.40;;
14100;SDS011;7127;49.372;8.166;2022-10-31T03:19:37;3.87;;;2.97;;
14100;SDS011;7127;49.372;8.166;2022-10-31T03:22:12;3.57;;;2.80;;
14100;SDS011;7127;49.372;8.166;2022-10-31T03:24:42;3.03;;;2.57;;
14100;SDS011;7127;49.372;8.166;2022-10-31T03:27:12;4.00;;;2.20;;
14100;SDS011;7127;49.372;8.166;2022-10-31T03:29:42;2.70;;;2.50;;
14100;SDS011;7127;49.372;8.166;2022-10-31T03:32:12;4.67;;;2.70;;
14100;SDS011;7127;49.372;8.166;2022-10-31T03:34:43;4.93;;;2.70;;
14100;SDS011;7127;49.372;8.166;2022-10-31T03:37:13;4.93;;;2.77;;
14100;SDS011;7127;49.372;8.166;2022-10-31T03:39:43;5.03;;;3.20;;
14100;SDS011;7127;49.372;8.166;2022-10-31T03:42:18;4.57;;;2.63;;
14100;SDS011;7127;49.372;8.166;2022-10-31T03:44:49;2.60;;;2.40;;
14100;SDS011;7127;49.372;8.166;2022-10-31T03:47:20;4.17;;;2.63;;
14100;SDS011;7127;49.372;8.166;2022-10-31T03:49:48;3.53;;;2.50;;
14100;SDS011;7127;49.372;8.166;2022-10-31T03:52:18;3.60;;;2.73;;
14100;SDS011;7127;49.372;8.166;2022-10-31T03:54:52;3.23;;;2.90;;
14100;SDS011;7127;49.372;8.166;2022-10-31T03:57:24;4.00;;;2.67;;
14100;SDS011;7127;49.372;8.166;2022-10-31T03:59:55;3.43;;;2.70;;
14100;SDS011;7127;49.372;8.166;2022-10-31T04:02:27;2.80;;;2.40;;
14100;SDS011;7127;49.372;8.166;2022-10-31T04:04:58;3.33;;;2.73;;
14100;SDS011;7127;49.372;8.166;2022-10-31T04:07:27;2.97;;;2.30;;
14100;SDS011;7127;49.372;8.166;2022-10-31T04:09:56;3.53;;;2.63;;
14100;SDS011;7127;49.372;8.166;2022-10-31T04:12:25;4.17;;;2.60;;
14100;SDS011;7127;49.372;8.166;2022-10-31T04:14:54;3.53;;;2.87;;
14100;SDS011;7127;49.372;8.166;2022-10-31T04:17:22;4.17;;;2.70;;
14100;SDS011;7127;49.372;8.166;2022-10-31T04:19:54;6.17;;;2.73;;
14100;SDS011;7127;49.372;8.166;2022-10-31T04:22:22;4.30;;;3.20;;
14100;SDS011;7127;49.372;8.166;2022-10-31T04:24:49;2.60;;;2.40;;
14100;SDS011;7127;49.372;8.166;2022-10-31T04:27:16;4.17;;;2.67;;
14100;SDS011;7127;49.372;8.166;2022-10-31T04:29:43;4.47;;;2.80;;
14100;SDS011;7127;49.372;8.166;2022-10-31T04:32:10;2.70;;;2.37;;
14100;SDS011;7127;49.372;8.166;2022-10-31T04:34:37;3.00;;;2.70;;
14100;SDS011;7127;49.372;8.166;2022-10-31T04:37:04;3.17;;;2.50;;
14100;SDS011;7127;49.372;8.166;2022-10-31T04:39:33;3.97;;;2.80;;
14100;SDS011;7127;49.372;8.166;2022-10-31T04:42:00;5.83;;;2.87;;
14100;SDS011;7127;49.372;8.166;2022-10-31T04:44:26;4.10;;;2.60;;
14100;SDS011;7127;49.372;8.166;2022-10-31T04:46:53;3.03;;;2.73;;
14100;SDS011;7127;49.372;8.166;2022-10-31T04:49:20;4.40;;;3.00;;
14100;SDS011;7127;49.372;8.166;2022-10-31T04:51:47;5.23;;;3.13;;
14100;SDS011;7127;49.372;8.166;2022-10-31T04:54:14;3.47;;;2.97;;
14100;SDS011;7127;49.372;8.166;2022-10-31T04:56:43;3.63;;;2.73;;
14100;SDS011;7127;49.372;8.166;2022-10-31T04:59:09;4.73;;;2.83;;
14100;SDS011;7127;49.372;8.166;2022-10-31T05:01:36;5.07;;;2.40;;
14100;SDS011;7127;49.372;8.166;2022-10-31T05:04:03;3.53;;;2.13;;
14100;SDS011;7127;49.372;8.166;2022-10-31T05:06:30;2.67;;;2.00;;
14100;SDS011;7127;49.372;8.166;2022-10-31T05:08:57;4.63;;;2.40;;
14100;SDS011;7127;49.372;8.166;2022-10-31T05:11:24;2.27;;;1.90;;
14100;SDS011;7127;49.372;8.166;2022-10-31T05:13:53;2.93;;;2.30;;
14100;SDS011;7127;49.372;8.166;2022-10-31T05:16:19;5.00;;;2.10;;
14100;SDS011;7127;49.372;8.166;2022-10-31T05:18:46;3.50;;;2.50;;
14100;SDS011;7127;49.372;8.166;2022-10-31T05:21:13;2.87;;;2.10;;
14100;SDS011;7127;49.372;8.166;2022-10-31T05:23:40;5.07;;;2.73;;
14100;SDS011;7127;49.372;8.166;2022-10-31T05:26:07;4.97;;;2.57;;
14100;SDS011;7127;49.372;8.166;2022-10-31T05:28:34;3.00;;;2.23;;
14100;SDS011;7127;49.372;8.166;2022-10-31T05:31:03;2.77;;;1.97;;
14100;SDS011;7127;49.372;8.166;2022-10-31T05:33:30;4.17;;;2.20;;
14100;SDS011;7127;49.372;8.166;2022-10-31T05:35:57;3.63;;;2.30;;
14100;SDS011;7127;49.372;8.166;2022-10-31T05:38:24;2.43;;;2.20;;
14100;SDS011;7127;49.372;8.166;2022-10-31T05:40:53;3.27;;;1.87;;
14100;SDS011;7127;49.372;8.166;2022-10-31T05:43:22;3.13;;;1.83;;
14100;SDS011;7127;49.372;8.166;2022-10-31T05:45:51;4.03;;;1.90;;
14100;SDS011;7127;49.372;8.166;2022-10-31T05:48:20;3.43;;;2.37;;
14100;SDS011;7127;49.372;8.166;2022-10-31T05:50:47;3.70;;;2.13;;
14100;SDS011;7127;49.372;8.166;2022-10-31T05:53:14;2.43;;;1.90;;
14100;SDS011;7127;49.372;8.166;2022-10-31T05:55:42;2.83;;;1.90;;
14100;SDS011;7127;49.372;8.166;2022-10-31T05:58:09;3.00;;;1.90;;
14100;SDS011;7127;49.372;8.166;2022-10-31T06:00:37;3.33;;;1.90;;
14100;SDS011;7127;49.372;8.166;2022-10-31T06:03:04;3.40;;;1.90;;
14100;SDS011;7127;49.372;8.166;2022-10-31T06:05:34;2.83;;;2.07;;
14100;SDS011;7127;49.372;8.166;2022-10-31T06:08:01;4.53;;;2.60;;
14100;SDS011;7127;49.372;8.166;2022-10-31T06:10:28;3.20;;;2.17;;
14100;SDS011;7127;49.372;8.166;2022-10-31T06:12:55;5.53;;;2.60;;
14100;SDS011;7127;49.372;8.166;2022-10-31T06:15:22;3.10;;;2.50;;
14100;SDS011;7127;49.372;8.166;2022-10-31T06:17:56;4.43;;;2.80;;
14100;SDS011;7127;49.372;8.166;2022-10-31T06:20:24;5.80;;;2.80;;
14100;SDS011;7127;49.372;8.166;2022-10-31T06:22:53;2.83;;;2.30;;
14100;SDS011;7127;49.372;8.166;2022-10-31T06:25:20;5.33;;;2.20;;
14100;SDS011;7127;49.372;8.166;2022-10-31T06:27:47;3.77;;;2.63;;
14100;SDS011;7127;49.372;8.166;2022-10-31T06:30:14;5.43;;;2.40;;
14100;SDS011;7127;49.372;8.166;2022-10-31T06:32:41;5.47;;;2.40;;
14100;SDS011;7127;49.372;8.166;2022-10-31T06:35:08;6.17;;;2.50;;
14100;SDS011;7127;49.372;8.166;2022-10-31T06:37:35;3.90;;;2.60;;
14100;SDS011;7127;49.372;8.166;2022-10-31T06:40:04;5.13;;;2.30;;
14100;SDS011;7127;49.372;8.166;2022-10-31T06:42:32;2.97;;;2.17;;
14100;SDS011;7127;49.372;8.166;2022-10-31T06:44:59;4.47;;;2.70;;
14100;SDS011;7127;49.372;8.166;2022-10-31T06:47:26;4.73;;;2.43;;
14100;SDS011;7127;49.372;8.166;2022-10-31T06:49:53;3.07;;;2.00;;
14100;SDS011;7127;49.372;8.166;2022-10-31T06:52:20;4.43;;;2.60;;
14100;SDS011;7127;49.372;8.166;2022-10-31T06:54:48;3.90;;;2.50;;
14100;SDS011;7127;49.372;8.166;2022-10-31T06:57:16;4.10;;;2.30;;
14100;SDS011;7127;49.372;8.166;2022-10-31T06:59:43;2.50;;;2.10;;
14100;SDS011;7127;49.372;8.166;2022-10-31T07:02:10;2.77;;;2.20;;
14100;SDS011;7127;49.372;8.166;2022-10-31T07:04:38;4.37;;;2.07;;
14100;SDS011;7127;49.372;8.166;2022-10-31T07:07:05;4.37;;;2.07;;
14100;SDS011;7127;49.372;8.166;2022-10-31T07:09:32;2.70;;;1.87;;
14100;SDS011;7127;49.372;8.166;2022-10-31T07:11:59;4.53;;;2.23;;
14100;SDS011;7127;49.372;8.166;2022-10-31T07:14:27;2.77;;;1.90;;
14100;SDS011;7127;49.372;8.166;2022-10-31T07:16:54;3.77;;;1.97;;
14100;SDS011;7127;49.372;8.166;2022-10-31T07:19:21;4.17;;;1.80;;
14100;SDS011;7127;49.372;8.166;2022-10-31T07:21:48;5.50;;;2.43;;
14100;SDS011;7127;49.372;8.166;2022-10-31T07:24:15;3.80;;;1.83;;
14100;SDS011;7127;49.372;8.166;2022-10-31T07:26:42;2.47;;;2.07;;
14100;SDS011;7127;49.372;8.166;2022-10-31T07:29:10;2.67;;;2.17;;
14100;SDS011;7127;49.372;8.166;2022-10-31T07:31:39;2.80;;;2.40;;
14100;SDS011;7127;49.372;8.166;2022-10-31T07:34:06;2.70;;;2.07;;
14100;SDS011;7127;49.372;8.166;2022-10-31T07:36:33;2.80;;;2.33;;
14100;SDS011;7127;49.372;8.166;2022-10-31T07:39:00;3.47;;;2.07;;
14100;SDS011;7127;49.372;8.166;2022-10-31T07:41:27;3.80;;;2.40;;
14100;SDS011;7127;49.372;8.166;2022-10-31T07:43:54;4.43;;;2.30;;
14100;SDS011;7127;49.372;8.166;2022-10-31T07:46:21;3.67;;;2.47;;
14100;SDS011;7127;49.372;8.166;2022-10-31T07:48:50;3.03;;;2.70;;
14100;SDS011;7127;49.372;8.166;2022-10-31T07:51:16;4.43;;;2.60;;
14100;SDS011;7127;49.372;8.166;2022-10-31T07:53:43;3.60;;;2.50;;
14100;SDS011;7127;49.372;8.166;2022-10-31T07:56:11;6.13;;;3.33;;
14100;SDS011;7127;49.372;8.166;2022-10-31T07:58:38;4.07;;;2.87;;
14100;SDS011;7127;49.372;8.166;2022-10-31T08:01:05;4.77;;;2.97;;
14100;SDS011;7127;49.372;8.166;2022-10-31T08:03:32;3.50;;;2.70;;
14100;SDS011;7127;49.372;8.166;2022-10-31T08:06:00;2.80;;;2.47;;
14100;SDS011;7127;49.372;8.166;2022-10-31T08:08:27;3.47;;;2.67;;
14100;SDS011;7127;49.372;8.166;2022-10-31T08:10:54;3.17;;;2.50;;
14100;SDS011;7127;49.372;8.166;2022-10-31T08:13:21;4.23;;;3.03;;
14100;SDS011;7127;49.372;8.166;2022-10-31T08:15:48;3.37;;;2.60;;
14100;SDS011;7127;49.372;8.166;2022-10-31T08:18:17;3.60;;;2.63;;
14100;SDS011;7127;49.372;8.166;2022-10-31T08:20:44;3.47;;;2.90;;
14100;SDS011;7127;49.372;8.166;2022-10-31T08:23:12;3.60;;;2.80;;
14100;SDS011;7127;49.372;8.166;2022-10-31T08:25:41;4.10;;;2.90;;
14100;SDS011;7127;49.372;8.166;2022-10-31T08:28:08;4.23;;;3.57;;
14100;SDS011;7127;49.372;8.166;2022-10-31T08:30:37;3.93;;;3.07;;
14100;SDS011;7127;49.372;8.166;2022-10-31T08:33:05;5.73;;;3.80;;
14100;SDS011;7127;49.372;8.166;2022-10-31T08:35:43;7.47;;;3.93;;
14100;SDS011;7127;49.372;8.166;2022-10-31T08:38:49;4.13;;;2.83;;
14100;SDS011;7127;49.372;8.166;2022-10-31T08:41:16;5.40;;;3.13;;
14100;SDS011;7127;49.372;8.166;2022-10-31T08:43:43;4.33;;;3.30;;
14100;SDS011;7127;49.372;8.166;2022-10-31T08:46:10;4.73;;;3.33;;
14100;SDS011;7127;49.372;8.166;2022-10-31T08:48:37;5.13;;;3.50;;
14100;SDS011;7127;49.372;8.166;2022-10-31T08:51:04;5.67;;;3.00;;
14100;SDS011;7127;49.372;8.166;2022-10-31T08:53:31;5.70;;;3.30;;
14100;SDS011;7127;49.372;8.166;2022-10-31T08:56:00;5.37;;;2.73;;
14100;SDS011;7127;49.372;8.166;2022-10-31T08:58:27;4.73;;;2.73;;
14100;SDS011;7127;49.372;8.166;2022-10-31T09:00:54;4.83;;;2.63;;
14100;SDS011;7127;49.372;8.166;2022-10-31T09:03:24;4.50;;;3.03;;
14100;SDS011;7127;49.372;8.166;2022-10-31T09:05:54;4.17;;;3.03;;
14100;SDS011;7127;49.372;8.166;2022-10-31T09:08:22;4.70;;;3.20;;
14100;SDS011;7127;49.372;8.166;2022-10-31T09:10:49;3.90;;;3.37;;
14100;SDS011;7127;49.372;8.166;2022-10-31T09:13:18;3.33;;;2.87;;
14100;SDS011;7127;49.372;8.166;2022-10-31T09:15:47;4.23;;;3.10;;
14100;SDS011;7127;49.372;8.166;2022-10-31T09:18:15;5.80;;;3.17;;
14100;SDS011;7127;49.372;8.166;2022-10-31T09:20:44;4.23;;;3.03;;
14100;SDS011;7127;49.372;8.166;2022-10-31T09:23:12;4.07;;;3.20;;
14100;SDS011;7127;49.372;8.166;2022-10-31T09:25:40;4.07;;;2.90;;
14100;SDS011;7127;49.372;8.166;2022-10-31T09:28:09;5.70;;;3.50;;
14100;SDS011;7127;49.372;8.166;2022-10-31T09:30:39;3.87;;;3.10;;
14100;SDS011;7127;49.372;8.166;2022-10-31T09:33:07;3.43;;;3.07;;
14100;SDS011;7127;49.372;8.166;2022-10-31T09:35:36;4.23;;;3.27;;
14100;SDS011;7127;49.372;8.166;2022-10-31T09:38:04;4.80;;;2.57;;
14100;SDS011;7127;49.372;8.166;2022-10-31T09:40:34;4.10;;;3.13;;
14100;SDS011;7127;49.372;8.166;2022-10-31T09:43:05;2.87;;;2.57;;
14100;SDS011;7127;49.372;8.166;2022-10-31T09:45:41;5.40;;;3.00;;
14100;SDS011;7127;49.372;8.166;2022-10-31T09:48:31;5.93;;;3.40;;
14100;SDS011;7127;49.372;8.166;2022-10-31T09:51:08;5.83;;;3.20;;
14100;SDS011;7127;49.372;8.166;2022-10-31T09:53:40;4.73;;;3.23;;
14100;SDS011;7127;49.372;8.166;2022-10-31T09:56:11;3.60;;;2.80;;
14100;SDS011;7127;49.372;8.166;2022-10-31T09:58:42;6.77;;;3.40;;
14100;SDS011;7127;49.372;8.166;2022-10-31T10:01:16;6.07;;;3.57;;
14100;SDS011;7127;49.372;8.166;2022-10-31T10:03:55;5.63;;;4.00;;
14100;SDS011;7127;49.372;8.166;2022-10-31T10:06:26;4.50;;;3.30;;
14100;SDS011;7127;49.372;8.166;2022-10-31T10:08:55;9.83;;;3.67;;
14100;SDS011;7127;49.372;8.166;2022-10-31T10:11:35;3.60;;;3.00;;
14100;SDS011;7127;49.372;8.166;2022-10-31T10:19:56;6.03;;;3.63;;
14100;SDS011;7127;49.372;8.166;2022-10-31T10:22:52;5.67;;;3.43;;
14100;SDS011;7127;49.372;8.166;2022-10-31T10:25:26;4.47;;;3.40;;
14100;SDS011;7127;49.372;8.166;2022-10-31T10:28:01;4.63;;;3.33;;
14100;SDS011;7127;49.372;8.166;2022-10-31T10:30:36;5.70;;;3.40;;
14100;SDS011;7127;49.372;8.166;2022-10-31T10:33:10;4.67;;;3.73;;
14100;SDS011;7127;49.372;8.166;2022-10-31T10:35:39;4.73;;;3.77;;
14100;SDS011;7127;49.372;8.166;2022-10-31T10:38:12;5.53;;;3.80;;
14100;SDS011;7127;49.372;8.166;2022-10-31T10:40:44;5.27;;;3.70;;
14100;SDS011;7127;49.372;8.166;2022-10-31T10:43:18;4.57;;;3.43;;
14100;SDS011;7127;49.372;8.166;2022-10-31T10:45:53;3.80;;;3.33;;
14100;SDS011;7127;49.372;8.166;2022-10-31T10:48:51;5.87;;;3.80;;
14100;SDS011;7127;49.372;8.166;2022-10-31T10:51:27;3.50;;;2.93;;
14100;SDS011;7127;49.372;8.166;2022-10-31T10:54:03;5.13;;;3.30;;
14100;SDS011;7127;49.372;8.166;2022-10-31T10:56:53;6.23;;;3.63;;
14100;SDS011;7127;49.372;8.166;2022-10-31T10:59:24;4.87;;;3.17;;
14100;SDS011;7127;49.372;8.166;2022-10-31T11:01:52;5.77;;;3.20;;
14100;SDS011;7127;49.372;8.166;2022-10-31T11:04:30;3.87;;;3.03;;
14100;SDS011;7127;49.372;8.166;2022-10-31T11:07:02;6.00;;;3.50;;
14100;SDS011;7127;49.372;8.166;2022-10-31T11:09:31;5.53;;;3.80;;
14100;SDS011;7127;49.372;8.166;2022-10-31T11:12:00;3.67;;;3.20;;
14100;SDS011;7127;49.372;8.166;2022-10-31T11:14:33;4.93;;;3.70;;
14100;SDS011;7127;49.372;8.166;2022-10-31T11:17:10;4.30;;;3.60;;
14100;SDS011;7127;49.372;8.166;2022-10-31T11:19:45;6.33;;;3.23;;
14100;SDS011;7127;49.372;8.166;2022-10-31T11:22:14;5.37;;;3.37;;
14100;SDS011;7127;49.372;8.166;2022-10-31T11:24:43;4.60;;;3.17;;
14100;SDS011;7127;49.372;8.166;2022-10-31T11:27:14;4.67;;;3.30;;
14100;SDS011;7127;49.372;8.166;2022-10-31T11:29:45;3.87;;;2.87;;
14100;SDS011;7127;49.372;8.166;2022-10-31T11:32:16;4.87;;;3.00;;
14100;SDS011;7127;49.372;8.166;2022-10-31T11:34:49;4.93;;;2.60;;
14100;SDS011;7127;49.372;8.166;2022-10-31T11:37:19;4.37;;;3.30;;
14100;SDS011;7127;49.372;8.166;2022-10-31T11:39:50;3.63;;;2.73;;
14100;SDS011;7127;49.372;8.166;2022-10-31T11:42:20;3.43;;;2.47;;
14100;SDS011;7127;49.372;8.166;2022-10-31T11:44:49;3.60;;;2.50;;
14100;SDS011;7127;49.372;8.166;2022-10-31T11:47:21;3.33;;;2.63;;
14100;SDS011;7127;49.372;8.166;2022-10-31T11:49:53;6.10;;;3.10;;
14100;SDS011;7127;49.372;8.166;2022-10-31T11:52:23;4.80;;;3.20;;
14100;SDS011;7127;49.372;8.166;2022-10-31T11:54:53;4.40;;;2.70;;
14100;SDS011;7127;49.372;8.166;2022-10-31T11:57:22;6.70;;;2.90;;
14100;SDS011;7127;49.372;8.166;2022-10-31T11:59:53;4.20;;;3.00;;
14100;SDS011;7127;49.372;8.166;2022-10-31T12:02:22;3.80;;;2.63;;
14100;SDS011;7127;49.372;8.166;2022-10-31T12:04:51;3.57;;;3.10;;
14100;SDS011;7127;49.372;8.166;2022-10-31T12:07:27;6.10;;;2.70;;
14100;SDS011;7127;49.372;8.166;2022-10-31T12:09:54;4.00;;;2.57;;
14100;SDS011;7127;49.372;8.166;2022-10-31T12:12:24;3.00;;;2.43;;
14100;SDS011;7127;49.372;8.166;2022-10-31T12:15:17;3.97;;;2.60;;
14100;SDS011;7127;49.372;8.166;2022-10-31T12:18:00;2.50;;;1.97;;
14100;SDS011;7127;49.372;8.166;2022-10-31T12:21:00;3.43;;;2.30;;
14100;SDS011;7127;49.372;8.166;2022-10-31T12:23:38;4.70;;;2.57;;
14100;SDS011;7127;49.372;8.166;2022-10-31T12:26:15;3.03;;;2.40;;
14100;SDS011;7127;49.372;8.166;2022-10-31T12:28:51;5.73;;;2.70;;
14100;SDS011;7127;49.372;8.166;2022-10-31T12:31:43;5.10;;;2.57;;
14100;SDS011;7127;49.372;8.166;2022-10-31T12:37:12;3.30;;;2.87;;
14100;SDS011;7127;49.372;8.166;2022-10-31T12:39:58;3.43;;;2.87;;
14100;SDS011;7127;49.372;8.166;2022-10-31T12:42:42;3.33;;;2.70;;
14100;SDS011;7127;49.372;8.166;2022-10-31T12:48:20;4.17;;;2.90;;
14100;SDS011;7127;49.372;8.166;2022-10-31T12:50:58;5.70;;;2.50;;
14100;SDS011;7127;49.372;8.166;2022-10-31T12:53:37;4.70;;;2.57;;
14100;SDS011;7127;49.372;8.166;2022-10-31T12:56:26;4.77;;;2.50;;
14100;SDS011;7127;49.372;8.166;2022-10-31T12:59:07;3.70;;;2.67;;
14100;SDS011;7127;49.372;8.166;2022-10-31T13:01:39;2.77;;;2.30;;
14100;SDS011;7127;49.372;8.166;2022-10-31T13:04:12;4.37;;;2.50;;
14100;SDS011;7127;49.372;8.166;2022-10-31T13:06:46;3.20;;;2.40;;
14100;SDS011;7127;49.372;8.166;2022-10-31T13:09:17;3.90;;;2.60;;
14100;SDS011;7127;49.372;8.166;2022-10-31T13:11:49;3.33;;;2.73;;
14100;SDS011;7127;49.372;8.166;2022-10-31T13:14:23;3.47;;;2.43;;
14100;SDS011;7127;49.372;8.166;2022-10-31T13:16:53;2.90;;;2.13;;
14100;SDS011;7127;49.372;8.166;2022-10-31T13:19:22;4.47;;;3.23;;
14100;SDS011;7127;49.372;8.166;2022-10-31T13:21:55;3.47;;;2.50;;
14100;SDS011;7127;49.372;8.166;2022-10-31T13:24:30;4.03;;;2.70;;
14100;SDS011;7127;49.372;8.166;2022-10-31T13:27:02;6.37;;;2.63;;
14100;SDS011;7127;49.372;8.166;2022-10-31T13:29:35;4.40;;;2.83;;
14100;SDS011;7127;49.372;8.166;2022-10-31T13:32:08;3.73;;;2.83;;
14100;SDS011;7127;49.372;8.166;2022-10-31T13:34:37;3.73;;;2.53;;
14100;SDS011;7127;49.372;8.166;2022-10-31T13:37:11;3.87;;;2.53;;
14100;SDS011;7127;49.372;8.166;2022-10-31T13:39:51;4.13;;;2.60;;
14100;SDS011;7127;49.372;8.166;2022-10-31T13:42:32;3.27;;;2.43;;
14100;SDS011;7127;49.372;8.166;2022-10-31T13:45:11;2.73;;;2.40;;
14100;SDS011;7127;49.372;8.166;2022-10-31T13:47:40;2.87;;;2.30;;
14100;SDS011;7127;49.372;8.166;2022-10-31T13:50:18;3.27;;;2.60;;
14100;SDS011;7127;49.372;8.166;2022-10-31T13:52:47;3.13;;;2.47;;
14100;SDS011;7127;49.372;8.166;2022-10-31T13:58:19;3.43;;;2.07;;
14100;SDS011;7127;49.372;8.166;2022-10-31T14:00:58;4.90;;;2.43;;
14100;SDS011;7127;49.372;8.166;2022-10-31T14:03:39;4.37;;;2.40;;
14100;SDS011;7127;49.372;8.166;2022-10-31T14:06:09;3.20;;;2.40;;
14100;SDS011;7127;49.372;8.166;2022-10-31T14:08:39;4.67;;;2.43;;
14100;SDS011;7127;49.372;8.166;2022-10-31T14:11:18;4.07;;;2.63;;
14100;SDS011;7127;49.372;8.166;2022-10-31T14:13:51;3.30;;;2.30;;
14100;SDS011;7127;49.372;8.166;2022-10-31T14:16:20;3.23;;;2.40;;
14100;SDS011;7127;49.372;8.166;2022-10-31T14:18:51;2.63;;;2.23;;
14100;SDS011;7127;49.372;8.166;2022-10-31T14:21:27;2.77;;;2.30;;
14100;SDS011;7127;49.372;8.166;2022-10-31T14:23:55;4.30;;;2.60;;
14100;SDS011;7127;49.372;8.166;2022-10-31T14:26:36;3.10;;;2.30;;
14100;SDS011;7127;49.372;8.166;2022-10-31T14:29:23;3.80;;;2.63;;
14100;SDS011;7127;49.372;8.166;2022-10-31T14:31:53;4.00;;;2.30;;
14100;SDS011;7127;49.372;8.166;2022-10-31T14:34:23;4.30;;;2.57;;
14100;SDS011;7127;49.372;8.166;2022-10-31T14:36:59;2.50;;;2.30;;
14100;SDS011;7127;49.372;8.166;2022-10-31T14:39:40;3.40;;;2.30;;
14100;SDS011;7127;49.372;8.166;2022-10-31T14:42:19;3.17;;;2.20;;
14100;SDS011;7127;49.372;8.166;2022-10-31T14:45:05;4.33;;;2.23;;
14100;SDS011;7127;49.372;8.166;2022-10-31T14:47:43;4.80;;;2.57;;
14100;SDS011;7127;49.372;8.166;2022-10-31T14:50:29;3.23;;;2.50;;
14100;SDS011;7127;49.372;8.166;2022-10-31T14:53:08;3.57;;;2.80;;
14100;SDS011;7127;49.372;8.166;2022-10-31T14:55:41;4.13;;;2.60;;
14100;SDS011;7127;49.372;8.166;2022-10-31T14:58:15;5.30;;;2.77;;
14100;SDS011;7127;49.372;8.166;2022-10-31T15:00:45;3.67;;;2.77;;
14100;SDS011;7127;49.372;8.166;2022-10-31T15:03:21;3.53;;;2.90;;
14100;SDS011;7127;49.372;8.166;2022-10-31T15:05:54;4.23;;;2.27;;
14100;SDS011;7127;49.372;8.166;2022-10-31T15:08:31;3.23;;;2.90;;
14100;SDS011;7127;49.372;8.166;2022-10-31T15:11:02;5.13;;;2.70;;
14100;SDS011;7127;49.372;8.166;2022-10-31T15:13:40;4.53;;;2.63;;
14100;SDS011;7127;49.372;8.166;2022-10-31T15:16:09;3.30;;;2.37;;
14100;SDS011;7127;49.372;8.166;2022-10-31T15:18:38;3.93;;;2.80;;
14100;SDS011;7127;49.372;8.166;2022-10-31T15:21:14;4.50;;;2.57;;
14100;SDS011;7127;49.372;8.166;2022-10-31T15:23:42;3.00;;;2.10;;
14100;SDS011;7127;49.372;8.166;2022-10-31T15:26:12;4.73;;;2.60;;
14100;SDS011;7127;49.372;8.166;2022-10-31T15:28:44;2.50;;;2.30;;
14100;SDS011;7127;49.372;8.166;2022-10-31T15:31:12;3.70;;;2.27;;
14100;SDS011;7127;49.372;8.166;2022-10-31T15:33:41;2.70;;;2.17;;
14100;SDS011;7127;49.372;8.166;2022-10-31T15:36:16;6.00;;;2.57;;
14100;SDS011;7127;49.372;8.166;2022-10-31T15:38:46;4.23;;;2.57;;
14100;SDS011;7127;49.372;8.166;2022-10-31T15:41:21;4.27;;;2.60;;
14100;SDS011;7127;49.372;8.166;2022-10-31T15:44:03;5.60;;;2.50;;